Detall de PIREP

Printer-friendly versionPDF version

[2013/02/01 17:31:00]
Flight IATA:CT2104
Pilot Number:044
Company ICAO:CAT
Aircraft Type:AT72/F
PAX:48
Departing Airport: LEVC
Destination Airport: LEBB
Alternate Airport:LEXJ
Online: VATSIM
Route:CENTA A33 CJN R10 PPN G23 CEGAM
Flight Level:F230
No Slew and time accel
No pause
Crash detect
Detect pilot in Cockpit between each 30 and 45 minutes
17:31 Zero fuel Weight: 39663 Lbs, Fuel Weight: 5255 Lbs
17:31 VATSIM:LEVC 011730Z 24018KT CAVOK 21/04 Q1013 NOSIG
17:31 VATSIM:LEBB 011730Z 26014G25KT 220V290 9999 SCT055 BKN068 16/07 Q1010 NOSIG
17:31 VOICE CATALONIAN
17:36 Parking Brakes off
17:40 Take-off
17:40 Take off Weight: 44845 Lbs
17:40 Wind: 243º @ 018 Knots Heading: 291º
17:40 POS N39º 29´ 27´´ W000º 29´ 10´´
17:40 Gear Up: 136 Knots
17:40 Flaps:1 at 135 Knots
17:42 Flaps:0 at 202 Knots
17:55 Wind:244º@053 Knots Heading: 288º Ground Speed: 194 Knots Altitude18930 ft
17:59 TOC
17:59 Fuel Weight: 4574 Lb
18:10 Wind:233º@044 Knots Heading: 290º Ground Speed: 258 Knots Altitude 23106 ft
18:25 Wind:223º@025 Knots Heading: 023º Ground Speed: 306 Knots Altitude 23018 ft
18:34 TOD
18:34 Fuel Weight: 3646 Lb
18:40 Wind:191º@015 Knots Heading: 027º Ground Speed: 248 Knots Altitude 11138 ft
18:55 Wind:245º@017 Knots Heading: 330º Ground Speed: 191 Knots Altitude 6364 ft
18:59 Gear Down: 170 Knots
19:00 Flaps:1 at 140 Knots
19:02 Flaps:2 at 124 Knots
19:04 Flaps:1 at 120 Knots
19:05 Flaps:0 at 129 Knots
19:10 Wind:252º@000 Knots Heading: 286º Ground Speed: 179 Knots Altitude 1535 ft
19:11 TouchDown:Rate -172 ft/min Speed: 113 Knots
19:11 VATSIM:LEBB 011900Z 00000KT 8000 -RA SCT050 BKN058 12/10 Q1010 TEMPO 4000 SHRA SCT025TCU
19:11 Land
19:11 Wind:254º@000 Knots
19:11 Heading: 297º
19:11 Flight Duration: 01:31
19:11 Landing Weight: 42809 Lbs
19:11 POS N43º 18´ 13´´ W002º 55´ 04´´
19:13 Parking brakes on
19:13 Block to Block Duration: 01:37
19:13 Final Fuel: 3130 Lbls
19:13 Spent Fuel: 2125 Lbls
19:13 Flight Length: 343 NM
19:13 TOD Land Length: 119 NM

Exportar CSV

Powered by Drupal - Modified by Danger4k